sensor_id;sensor_type;location;lat;lon;timestamp;pressure;altitude;pressure_sealevel;temperature;humidity
71638;BME280;59485;43.542;-5.676;2023-07-13T00:01:17;102180.00;;;18.48;100.00
71638;BME280;59485;43.542;-5.676;2023-07-13T00:03:42;102178.94;;;18.49;100.00
71638;BME280;59485;43.542;-5.676;2023-07-13T00:06:09;102179.78;;;18.50;100.00
71638;BME280;59485;43.542;-5.676;2023-07-13T00:08:35;102166.94;;;18.42;100.00
71638;BME280;59485;43.542;-5.676;2023-07-13T00:11:01;102174.84;;;18.45;100.00
71638;BME280;59485;43.542;-5.676;2023-07-13T00:13:28;102172.03;;;18.38;100.00
71638;BME280;59485;43.542;-5.676;2023-07-13T00:15:54;102180.66;;;18.50;100.00
71638;BME280;59485;43.542;-5.676;2023-07-13T00:18:21;102185.34;;;18.50;100.00
71638;BME280;59485;43.542;-5.676;2023-07-13T00:20:47;102182.28;;;18.38;100.00
71638;BME280;59485;43.542;-5.676;2023-07-13T00:23:13;102176.53;;;18.33;100.00
71638;BME280;59485;43.542;-5.676;2023-07-13T00:25:39;102185.91;;;18.32;100.00
71638;BME280;59485;43.542;-5.676;2023-07-13T00:28:05;102176.75;;;18.38;100.00
71638;BME280;59485;43.542;-5.676;2023-07-13T00:30:31;102166.44;;;18.25;100.00
71638;BME280;59485;43.542;-5.676;2023-07-13T00:32:57;102192.78;;;18.43;100.00
71638;BME280;59485;43.542;-5.676;2023-07-13T00:35:23;102183.81;;;18.41;100.00
71638;BME280;59485;43.542;-5.676;2023-07-13T00:37:48;102163.03;;;18.23;100.00
71638;BME280;59485;43.542;-5.676;2023-07-13T00:40:16;102151.84;;;18.10;100.00
71638;BME280;59485;43.542;-5.676;2023-07-13T00:42:44;102162.78;;;18.18;100.00
71638;BME280;59485;43.542;-5.676;2023-07-13T00:47:40;102150.59;;;18.19;100.00
71638;BME280;59485;43.542;-5.676;2023-07-13T00:50:09;102150.88;;;18.24;100.00
71638;BME280;59485;43.542;-5.676;2023-07-13T00:52:38;102146.16;;;18.25;100.00
71638;BME280;59485;43.542;-5.676;2023-07-13T00:55:05;102141.69;;;18.30;100.00
71638;BME280;59485;43.542;-5.676;2023-07-13T00:57:31;102144.66;;;18.29;100.00
71638;BME280;59485;43.542;-5.676;2023-07-13T00:59:59;102165.63;;;18.31;100.00
71638;BME280;59485;43.542;-5.676;2023-07-13T01:02:32;102136.91;;;18.11;100.00
71638;BME280;59485;43.542;-5.676;2023-07-13T01:04:58;102149.75;;;18.19;100.00
71638;BME280;59485;43.542;-5.676;2023-07-13T01:07:24;102151.84;;;18.10;100.00
71638;BME280;59485;43.542;-5.676;2023-07-13T01:09:50;102153.34;;;18.06;100.00
71638;BME280;59485;43.542;-5.676;2023-07-13T01:12:16;102132.16;;;17.98;100.00
71638;BME280;59485;43.542;-5.676;2023-07-13T01:14:42;102135.41;;;18.09;100.00
71638;BME280;59485;43.542;-5.676;2023-07-13T01:17:11;102120.44;;;18.03;100.00
71638;BME280;59485;43.542;-5.676;2023-07-13T01:19:40;102131.38;;;18.11;100.00
71638;BME280;59485;43.542;-5.676;2023-07-13T01:22:15;102123.69;;;18.13;100.00
71638;BME280;59485;43.542;-5.676;2023-07-13T01:24:52;102114.25;;;18.08;100.00
71638;BME280;59485;43.542;-5.676;2023-07-13T01:27:22;102129.41;;;18.05;100.00
71638;BME280;59485;43.542;-5.676;2023-07-13T01:29:56;102157.03;;;18.20;100.00
71638;BME280;59485;43.542;-5.676;2023-07-13T01:32:28;102142.06;;;18.14;100.00
71638;BME280;59485;43.542;-5.676;2023-07-13T01:34:54;102130.28;;;18.06;100.00
71638;BME280;59485;43.542;-5.676;2023-07-13T01:37:20;102141.63;;;18.17;100.00
71638;BME280;59485;43.542;-5.676;2023-07-13T01:39:46;102114.25;;;18.08;100.00
71638;BME280;59485;43.542;-5.676;2023-07-13T01:42:12;102113.84;;;18.11;100.00
71638;BME280;59485;43.542;-5.676;2023-07-13T01:44:38;102120.50;;;18.16;100.00
71638;BME280;59485;43.542;-5.676;2023-07-13T01:47:04;102128.66;;;18.24;100.00
71638;BME280;59485;43.542;-5.676;2023-07-13T01:49:30;102127.75;;;18.17;100.00
71638;BME280;59485;43.542;-5.676;2023-07-13T01:51:56;102126.25;;;18.15;100.00
71638;BME280;59485;43.542;-5.676;2023-07-13T01:54:21;102140.38;;;18.26;100.00
71638;BME280;59485;43.542;-5.676;2023-07-13T01:56:47;102143.59;;;18.23;100.00
71638;BME280;59485;43.542;-5.676;2023-07-13T01:59:13;102118.53;;;18.10;100.00
71638;BME280;59485;43.542;-5.676;2023-07-13T02:01:38;102117.50;;;18.11;100.00
71638;BME280;59485;43.542;-5.676;2023-07-13T02:04:04;102101.88;;;18.04;100.00
71638;BME280;59485;43.542;-5.676;2023-07-13T02:06:30;102125.84;;;18.18;100.00
71638;BME280;59485;43.542;-5.676;2023-07-13T02:08:56;102125.22;;;18.16;100.00
71638;BME280;59485;43.542;-5.676;2023-07-13T02:11:21;102116.63;;;18.11;100.00
71638;BME280;59485;43.542;-5.676;2023-07-13T02:13:47;102110.66;;;18.07;100.00
71638;BME280;59485;43.542;-5.676;2023-07-13T02:16:13;102109.81;;;18.13;100.00
71638;BME280;59485;43.542;-5.676;2023-07-13T02:18:38;102108.31;;;18.11;100.00
71638;BME280;59485;43.542;-5.676;2023-07-13T02:21:04;102119.41;;;18.17;100.00
71638;BME280;59485;43.542;-5.676;2023-07-13T02:23:30;102111.94;;;18.11;100.00
71638;BME280;59485;43.542;-5.676;2023-07-13T02:25:56;102118.56;;;18.17;100.00
71638;BME280;59485;43.542;-5.676;2023-07-13T02:28:22;102108.75;;;18.14;100.00
71638;BME280;59485;43.542;-5.676;2023-07-13T02:30:48;102116.25;;;18.20;100.00
71638;BME280;59485;43.542;-5.676;2023-07-13T02:38:20;102092.31;;;18.13;100.00
71638;BME280;59485;43.542;-5.676;2023-07-13T02:40:46;102103.41;;;18.19;100.00
71638;BME280;59485;43.542;-5.676;2023-07-13T02:43:12;102099.38;;;18.15;100.00
71638;BME280;59485;43.542;-5.676;2023-07-13T02:45:37;102105.13;;;18.20;100.00
71638;BME280;59485;43.542;-5.676;2023-07-13T02:48:04;102102.81;;;18.24;100.00
71638;BME280;59485;43.542;-5.676;2023-07-13T02:50:30;102104.53;;;18.25;100.00
71638;BME280;59485;43.542;-5.676;2023-07-13T02:52:55;102093.38;;;18.18;100.00
71638;BME280;59485;43.542;-5.676;2023-07-13T02:55:21;102100.25;;;18.22;100.00
71638;BME280;59485;43.542;-5.676;2023-07-13T02:57:47;102096.41;;;18.23;100.00
71638;BME280;59485;43.542;-5.676;2023-07-13T03:00:12;102095.09;;;18.26;100.00
71638;BME280;59485;43.542;-5.676;2023-07-13T03:02:38;102112.03;;;18.37;100.00
71638;BME280;59485;43.542;-5.676;2023-07-13T03:05:04;102110.09;;;18.31;100.00
71638;BME280;59485;43.542;-5.676;2023-07-13T03:07:30;102094.25;;;18.25;100.00
71638;BME280;59485;43.542;-5.676;2023-07-13T03:09:59;102110.09;;;18.31;100.00
71638;BME280;59485;43.542;-5.676;2023-07-13T03:12:25;102095.97;;;18.26;100.00
71638;BME280;59485;43.542;-5.676;2023-07-13T03:14:50;102079.31;;;18.20;100.00
71638;BME280;59485;43.542;-5.676;2023-07-13T03:19:44;102086.16;;;18.24;100.00
71638;BME280;59485;43.542;-5.676;2023-07-13T03:22:09;102084.88;;;18.26;100.00
71638;BME280;59485;43.542;-5.676;2023-07-13T03:27:03;102062.44;;;18.15;100.00
71638;BME280;59485;43.542;-5.676;2023-07-13T03:29:29;102086.16;;;18.30;100.00
71638;BME280;59485;43.542;-5.676;2023-07-13T03:31:54;102076.53;;;18.20;100.00
71638;BME280;59485;43.542;-5.676;2023-07-13T03:34:20;102086.38;;;18.29;100.00
71638;BME280;59485;43.542;-5.676;2023-07-13T03:36:49;102070.38;;;18.24;100.00
71638;BME280;59485;43.542;-5.676;2023-07-13T03:41:46;102081.69;;;18.36;100.00
71638;BME280;59485;43.542;-5.676;2023-07-13T03:44:20;102071.88;;;18.33;100.00
71638;BME280;59485;43.542;-5.676;2023-07-13T03:46:46;102073.34;;;18.29;100.00
71638;BME280;59485;43.542;-5.676;2023-07-13T03:51:46;102075.91;;;18.31;100.00
71638;BME280;59485;43.542;-5.676;2023-07-13T03:54:11;102086.38;;;18.35;100.00
71638;BME280;59485;43.542;-5.676;2023-07-13T03:56:37;102072.28;;;18.30;100.00
71638;BME280;59485;43.542;-5.676;2023-07-13T03:59:02;102069.06;;;18.20;100.00
71638;BME280;59485;43.542;-5.676;2023-07-13T04:01:28;102090.41;;;18.26;100.00
71638;BME280;59485;43.542;-5.676;2023-07-13T04:03:57;102076.97;;;18.23;100.00
71638;BME280;59485;43.542;-5.676;2023-07-13T04:06:36;102085.50;;;18.28;100.00
71638;BME280;59485;43.542;-5.676;2023-07-13T04:09:05;102096.88;;;18.33;100.00
71638;BME280;59485;43.542;-5.676;2023-07-13T04:11:31;102080.59;;;18.24;100.00
71638;BME280;59485;43.542;-5.676;2023-07-13T04:13:58;102094.28;;;18.32;100.00
71638;BME280;59485;43.542;-5.676;2023-07-13T04:18:52;102101.56;;;18.33;100.00
71638;BME280;59485;43.542;-5.676;2023-07-13T04:21:24;102107.78;;;18.42;100.00
71638;BME280;59485;43.542;-5.676;2023-07-13T04:23:50;102076.78;;;18.25;100.00
71638;BME280;59485;43.542;-5.676;2023-07-13T04:26:15;102095.38;;;18.37;100.00
71638;BME280;59485;43.542;-5.676;2023-07-13T04:28:47;102102.63;;;18.45;100.00
71638;BME280;59485;43.542;-5.676;2023-07-13T04:31:22;102082.53;;;18.36;100.00
71638;BME280;59485;43.542;-5.676;2023-07-13T04:33:48;102100.94;;;18.44;100.00
71638;BME280;59485;43.542;-5.676;2023-07-13T04:36:18;102112.28;;;18.56;100.00
71638;BME280;59485;43.542;-5.676;2023-07-13T04:38:44;102102.44;;;18.47;100.00
71638;BME280;59485;43.542;-5.676;2023-07-13T04:41:09;102105.22;;;18.53;100.00
71638;BME280;59485;43.542;-5.676;2023-07-13T04:43:35;102091.75;;;18.44;100.00
71638;BME280;59485;43.542;-5.676;2023-07-13T04:46:07;102116.81;;;18.57;100.00
71638;BME280;59485;43.542;-5.676;2023-07-13T04:48:33;102101.59;;;18.53;100.00
71638;BME280;59485;43.542;-5.676;2023-07-13T04:50:59;102103.09;;;18.55;100.00
71638;BME280;59485;43.542;-5.676;2023-07-13T04:53:26;102106.94;;;18.54;100.00
71638;BME280;59485;43.542;-5.676;2023-07-13T04:55:52;102097.75;;;18.47;100.00
71638;BME280;59485;43.542;-5.676;2023-07-13T04:58:18;102125.13;;;18.57;100.00
71638;BME280;59485;43.542;-5.676;2023-07-13T05:00:43;102125.97;;;18.51;100.00
71638;BME280;59485;43.542;-5.676;2023-07-13T05:03:09;102115.88;;;18.43;100.00
71638;BME280;59485;43.542;-5.676;2023-07-13T05:05:35;102122.53;;;18.42;100.00
71638;BME280;59485;43.542;-5.676;2023-07-13T05:08:09;102128.94;;;18.49;100.00
71638;BME280;59485;43.542;-5.676;2023-07-13T05:10:35;102112.28;;;18.43;100.00
71638;BME280;59485;43.542;-5.676;2023-07-13T05:13:01;102105.41;;;18.38;100.00
71638;BME280;59485;43.542;-5.676;2023-07-13T05:15:26;102134.50;;;18.56;100.00
71638;BME280;59485;43.542;-5.676;2023-07-13T05:17:52;102114.41;;;18.47;100.00
71638;BME280;59485;43.542;-5.676;2023-07-13T05:20:18;102132.56;;;18.50;100.00
71638;BME280;59485;43.542;-5.676;2023-07-13T05:22:52;102141.81;;;18.57;100.00
71638;BME280;59485;43.542;-5.676;2023-07-13T05:25:17;102141.13;;;18.55;100.00
71638;BME280;59485;43.542;-5.676;2023-07-13T05:27:43;102141.41;;;18.60;100.00
71638;BME280;59485;43.542;-5.676;2023-07-13T05:30:11;102121.47;;;18.50;100.00
71638;BME280;59485;43.542;-5.676;2023-07-13T05:32:37;102146.09;;;18.59;100.00
71638;BME280;59485;43.542;-5.676;2023-07-13T05:35:03;102134.13;;;18.59;100.00
71638;BME280;59485;43.542;-5.676;2023-07-13T05:37:28;102133.28;;;18.58;100.00
71638;BME280;59485;43.542;-5.676;2023-07-13T05:39:54;102135.41;;;18.63;100.00
71638;BME280;59485;43.542;-5.676;2023-07-13T05:42:19;102136.91;;;18.65;100.00
71638;BME280;59485;43.542;-5.676;2023-07-13T05:44:45;102135.41;;;18.63;100.00
71638;BME280;59485;43.542;-5.676;2023-07-13T05:47:11;102136.91;;;18.59;100.00
71638;BME280;59485;43.542;-5.676;2023-07-13T05:49:36;102142.66;;;18.64;100.00
71638;BME280;59485;43.542;-5.676;2023-07-13T05:52:02;102139.47;;;18.67;100.00
71638;BME280;59485;43.542;-5.676;2023-07-13T05:54:27;102155.72;;;18.70;100.00
71638;BME280;59485;43.542;-5.676;2023-07-13T05:56:53;102149.75;;;18.73;100.00
71638;BME280;59485;43.542;-5.676;2023-07-13T05:59:19;102153.81;;;18.77;100.00
71638;BME280;59485;43.542;-5.676;2023-07-13T06:01:44;102160.19;;;18.71;100.00
71638;BME280;59485;43.542;-5.676;2023-07-13T06:04:10;102146.97;;;18.73;100.00
71638;BME280;59485;43.542;-5.676;2023-07-13T06:06:36;102161.09;;;18.78;100.00
71638;BME280;59485;43.542;-5.676;2023-07-13T06:09:01;102173.06;;;18.79;100.00
71638;BME280;59485;43.542;-5.676;2023-07-13T06:11:27;102160.44;;;18.76;100.00
71638;BME280;59485;43.542;-5.676;2023-07-13T06:13:55;102161.09;;;18.78;100.00
71638;BME280;59485;43.542;-5.676;2023-07-13T06:16:21;102153.38;;;18.80;100.00
71638;BME280;59485;43.542;-5.676;2023-07-13T06:18:47;102167.53;;;18.92;100.00
71638;BME280;59485;43.542;-5.676;2023-07-13T06:21:17;102141.44;;;18.86;100.00
71638;BME280;59485;43.542;-5.676;2023-07-13T06:23:44;102162.81;;;18.99;100.00
71638;BME280;59485;43.542;-5.676;2023-07-13T06:26:11;102155.13;;;18.94;100.00
71638;BME280;59485;43.542;-5.676;2023-07-13T06:28:37;102157.91;;;19.01;100.00
71638;BME280;59485;43.542;-5.676;2023-07-13T06:31:10;102150.00;;;18.98;100.00
71638;BME280;59485;43.542;-5.676;2023-07-13T06:33:37;102158.13;;;19.06;100.00
71638;BME280;59485;43.542;-5.676;2023-07-13T06:36:04;102154.28;;;19.00;100.00
71638;BME280;59485;43.542;-5.676;2023-07-13T06:41:06;102142.31;;;19.00;100.00
71638;BME280;59485;43.542;-5.676;2023-07-13T06:43:32;102147.25;;;19.04;100.00
71638;BME280;59485;43.542;-5.676;2023-07-13T06:45:57;102154.72;;;19.17;100.00
71638;BME280;59485;43.542;-5.676;2023-07-13T06:48:23;102163.91;;;19.24;100.00
71638;BME280;59485;43.542;-5.676;2023-07-13T06:50:49;102148.53;;;19.22;100.00
71638;BME280;59485;43.542;-5.676;2023-07-13T06:53:17;102156.84;;;19.35;100.00
71638;BME280;59485;43.542;-5.676;2023-07-13T06:55:44;102143.78;;;19.42;100.00
71638;BME280;59485;43.542;-5.676;2023-07-13T06:58:10;102124.75;;;19.39;100.00
71638;BME280;59485;43.542;-5.676;2023-07-13T07:00:36;102137.59;;;19.53;100.00
71638;BME280;59485;43.542;-5.676;2023-07-13T07:03:01;102123.91;;;19.58;100.00
71638;BME280;59485;43.542;-5.676;2023-07-13T07:05:27;102141.84;;;19.69;100.00
71638;BME280;59485;43.542;-5.676;2023-07-13T07:07:54;102151.50;;;19.73;100.00
71638;BME280;59485;43.542;-5.676;2023-07-13T07:10:20;102153.41;;;19.85;100.00
71638;BME280;59485;43.542;-5.676;2023-07-13T07:12:46;102149.09;;;19.90;100.00
71638;BME280;59485;43.542;-5.676;2023-07-13T07:15:12;102154.22;;;19.93;100.00
71638;BME280;59485;43.542;-5.676;2023-07-13T07:17:38;102137.53;;;19.93;100.00
71638;BME280;59485;43.542;-5.676;2023-07-13T07:20:05;102165.47;;;20.17;100.00
71638;BME280;59485;43.542;-5.676;2023-07-13T07:22:30;102161.00;;;20.16;100.00
71638;BME280;59485;43.542;-5.676;2023-07-13T07:24:57;102145.19;;;20.10;100.00
71638;BME280;59485;43.542;-5.676;2023-07-13T07:27:23;102155.16;;;20.24;100.00
71638;BME280;59485;43.542;-5.676;2023-07-13T07:29:51;102162.41;;;20.32;100.00
71638;BME280;59485;43.542;-5.676;2023-07-13T07:32:18;102157.72;;;20.39;100.00
71638;BME280;59485;43.542;-5.676;2023-07-13T07:34:44;102150.66;;;20.30;100.00
71638;BME280;59485;43.542;-5.676;2023-07-13T07:37:11;102165.66;;;20.29;100.00
71638;BME280;59485;43.542;-5.676;2023-07-13T07:39:38;102144.88;;;20.25;100.00
71638;BME280;59485;43.542;-5.676;2023-07-13T07:42:04;102145.25;;;20.42;100.00
71638;BME280;59485;43.542;-5.676;2023-07-13T07:44:32;102167.06;;;20.51;100.00
71638;BME280;59485;43.542;-5.676;2023-07-13T07:46:59;102168.84;;;20.46;100.00
71638;BME280;59485;43.542;-5.676;2023-07-13T07:49:25;102155.28;;;20.49;100.00
71638;BME280;59485;43.542;-5.676;2023-07-13T07:51:50;102141.56;;;20.54;100.00
71638;BME280;59485;43.542;-5.676;2023-07-13T07:54:16;102152.63;;;20.68;100.00
71638;BME280;59485;43.542;-5.676;2023-07-13T07:56:42;102127.38;;;20.63;100.00
71638;BME280;59485;43.542;-5.676;2023-07-13T07:59:08;102144.59;;;20.84;100.00
71638;BME280;59485;43.542;-5.676;2023-07-13T08:01:33;102144.91;;;21.01;100.00
71638;BME280;59485;43.542;-5.676;2023-07-13T08:03:59;102127.13;;;20.95;100.00
71638;BME280;59485;43.542;-5.676;2023-07-13T08:06:25;102135.63;;;21.07;100.00
71638;BME280;59485;43.542;-5.676;2023-07-13T08:08:50;102126.63;;;21.05;100.00
71638;BME280;59485;43.542;-5.676;2023-07-13T08:11:21;102121.69;;;21.07;100.00
71638;BME280;59485;43.542;-5.676;2023-07-13T08:13:46;102115.94;;;21.02;100.00
71638;BME280;59485;43.542;-5.676;2023-07-13T08:16:12;102132.13;;;21.12;100.00
71638;BME280;59485;43.542;-5.676;2023-07-13T08:18:37;102123.78;;;21.12;100.00
71638;BME280;59485;43.542;-5.676;2023-07-13T08:21:07;102128.28;;;21.13;100.00
71638;BME280;59485;43.542;-5.676;2023-07-13T08:23:34;102123.41;;;21.08;100.00
71638;BME280;59485;43.542;-5.676;2023-07-13T08:26:00;102136.63;;;21.19;100.00
71638;BME280;59485;43.542;-5.676;2023-07-13T08:28:29;102137.88;;;21.23;100.00
71638;BME280;59485;43.542;-5.676;2023-07-13T08:31:00;102127.91;;;21.09;100.00
71638;BME280;59485;43.542;-5.676;2023-07-13T08:33:26;102135.34;;;21.15;100.00
71638;BME280;59485;43.542;-5.676;2023-07-13T08:35:52;102127.63;;;21.17;100.00
71638;BME280;59485;43.542;-5.676;2023-07-13T08:38:18;102136.56;;;21.26;100.00
71638;BME280;59485;43.542;-5.676;2023-07-13T08:40:44;102129.59;;;21.10;100.00
71638;BME280;59485;43.542;-5.676;2023-07-13T08:43:16;102143.16;;;21.31;100.00
71638;BME280;59485;43.542;-5.676;2023-07-13T08:45:54;102138.50;;;21.25;100.00
71638;BME280;59485;43.542;-5.676;2023-07-13T08:48:26;102133.84;;;21.19;100.00
71638;BME280;59485;43.542;-5.676;2023-07-13T08:51:00;102147.31;;;21.22;100.00
71638;BME280;59485;43.542;-5.676;2023-07-13T08:53:39;102129.44;;;21.30;100.00
71638;BME280;59485;43.542;-5.676;2023-07-13T08:56:11;102127.84;;;21.41;100.00
71638;BME280;59485;43.542;-5.676;2023-07-13T08:58:39;102125.00;;;21.47;100.00
71638;BME280;59485;43.542;-5.676;2023-07-13T09:02:09;102127.09;;;21.52;100.00
71638;BME280;59485;43.542;-5.676;2023-07-13T09:04:16;102128.22;;;21.69;100.00
71638;BME280;59485;43.542;-5.676;2023-07-13T09:07:11;102123.63;;;21.75;100.00
71638;BME280;59485;43.542;-5.676;2023-07-13T09:15:35;102122.00;;;21.85;100.00
71638;BME280;59485;43.542;-5.676;2023-07-13T09:18:38;102101.59;;;21.85;100.00
71638;BME280;59485;43.542;-5.676;2023-07-13T09:23:40;102108.00;;;21.74;100.00
71638;BME280;59485;43.542;-5.676;2023-07-13T09:28:47;102082.06;;;21.66;100.00
71638;BME280;59485;43.542;-5.676;2023-07-13T09:31:16;102075.81;;;21.71;100.00
71638;BME280;59485;43.542;-5.676;2023-07-13T09:33:45;102079.44;;;21.90;100.00
71638;BME280;59485;43.542;-5.676;2023-07-13T09:36:18;102095.38;;;22.07;100.00
71638;BME280;59485;43.542;-5.676;2023-07-13T09:44:53;102069.13;;;22.38;100.00
71638;BME280;59485;43.542;-5.676;2023-07-13T09:47:25;102066.84;;;22.47;100.00
71638;BME280;59485;43.542;-5.676;2023-07-13T09:49:58;102095.75;;;22.71;100.00
71638;BME280;59485;43.542;-5.676;2023-07-13T09:52:25;102067.13;;;22.57;100.00
71638;BME280;59485;43.542;-5.676;2023-07-13T09:54:54;102074.41;;;22.76;100.00
71638;BME280;59485;43.542;-5.676;2023-07-13T09:57:27;102092.19;;;22.94;100.00
71638;BME280;59485;43.542;-5.676;2023-07-13T09:59:54;102078.16;;;22.82;100.00
71638;BME280;59485;43.542;-5.676;2023-07-13T10:02:33;102082.44;;;22.85;100.00
71638;BME280;59485;43.542;-5.676;2023-07-13T10:05:00;102079.53;;;23.03;100.00
71638;BME280;59485;43.542;-5.676;2023-07-13T10:07:29;102075.69;;;23.15;100.00
71638;BME280;59485;43.542;-5.676;2023-07-13T10:10:00;102059.34;;;23.01;100.00
71638;BME280;59485;43.542;-5.676;2023-07-13T10:12:27;102050.09;;;23.00;100.00
71638;BME280;59485;43.542;-5.676;2023-07-13T10:14:54;102047.78;;;22.86;100.00
71638;BME280;59485;43.542;-5.676;2023-07-13T10:17:29;102053.25;;;22.80;100.00
71638;BME280;59485;43.542;-5.676;2023-07-13T10:20:01;102046.34;;;22.53;100.00
71638;BME280;59485;43.542;-5.676;2023-07-13T10:23:02;102067.41;;;22.67;100.00
71638;BME280;59485;43.542;-5.676;2023-07-13T10:25:35;102043.31;;;22.55;100.00
71638;BME280;59485;43.542;-5.676;2023-07-13T10:30:59;102066.91;;;22.59;100.00
71638;BME280;59485;43.542;-5.676;2023-07-13T10:33:25;102064.56;;;22.44;100.00
71638;BME280;59485;43.542;-5.676;2023-07-13T10:36:17;102058.09;;;22.43;100.00
71638;BME280;59485;43.542;-5.676;2023-07-13T10:38:45;102045.59;;;22.46;100.00
71638;BME280;59485;43.542;-5.676;2023-07-13T10:41:36;102028.97;;;22.51;100.00
71638;BME280;59485;43.542;-5.676;2023-07-13T10:44:04;102050.88;;;22.54;100.00
71638;BME280;59485;43.542;-5.676;2023-07-13T10:46:43;102027.78;;;22.29;100.00
71638;BME280;59485;43.542;-5.676;2023-07-13T10:49:10;102043.50;;;22.41;100.00
71638;BME280;59485;43.542;-5.676;2023-07-13T10:51:37;102029.50;;;22.30;100.00
71638;BME280;59485;43.542;-5.676;2023-07-13T10:54:31;102056.41;;;22.42;100.00
71638;BME280;59485;43.542;-5.676;2023-07-13T10:57:26;102055.88;;;22.34;100.00
71638;BME280;59485;43.542;-5.676;2023-07-13T11:00:15;102051.16;;;22.34;100.00
71638;BME280;59485;43.542;-5.676;2023-07-13T11:02:41;102043.00;;;22.33;100.00
71638;BME280;59485;43.542;-5.676;2023-07-13T11:05:40;102043.00;;;22.33;100.00
71638;BME280;59485;43.542;-5.676;2023-07-13T11:10:53;102040.22;;;22.33;100.00
71638;BME280;59485;43.542;-5.676;2023-07-13T11:13:55;102038.97;;;22.29;100.00
71638;BME280;59485;43.542;-5.676;2023-07-13T11:16:35;102032.28;;;22.18;100.00
71638;BME280;59485;43.542;-5.676;2023-07-13T11:21:28;102030.16;;;22.14;100.00
71638;BME280;59485;43.542;-5.676;2023-07-13T11:24:28;102043.56;;;22.23;100.00
71638;BME280;59485;43.542;-5.676;2023-07-13T11:30:39;102040.25;;;22.15;100.00
71638;BME280;59485;43.542;-5.676;2023-07-13T11:38:39;102035.06;;;22.18;100.00
71638;BME280;59485;43.542;-5.676;2023-07-13T11:41:15;102016.78;;;22.04;100.00
71638;BME280;59485;43.542;-5.676;2023-07-13T11:43:41;102009.25;;;22.04;100.00
71638;BME280;59485;43.542;-5.676;2023-07-13T11:49:05;101994.81;;;21.89;100.00
71638;BME280;59485;43.542;-5.676;2023-07-13T11:53:57;102010.00;;;21.93;100.00
71638;BME280;59485;43.542;-5.676;2023-07-13T11:58:55;102000.25;;;22.02;100.00
71638;BME280;59485;43.542;-5.676;2023-07-13T12:03:53;102019.16;;;22.19;100.00
71638;BME280;59485;43.542;-5.676;2023-07-13T12:06:33;101999.91;;;22.11;100.00
71638;BME280;59485;43.542;-5.676;2023-07-13T12:09:08;102001.63;;;22.12;100.00
71638;BME280;59485;43.542;-5.676;2023-07-13T12:11:47;101991.06;;;22.14;100.00
71638;BME280;59485;43.542;-5.676;2023-07-13T12:14:17;101978.53;;;22.04;100.00
71638;BME280;59485;43.542;-5.676;2023-07-13T12:16:44;101998.81;;;22.12;100.00
71638;BME280;59485;43.542;-5.676;2023-07-13T12:19:28;101973.31;;;22.08;100.00
71638;BME280;59485;43.542;-5.676;2023-07-13T12:21:58;101980.47;;;22.04;100.00
71638;BME280;59485;43.542;-5.676;2023-07-13T12:27:01;101957.09;;;22.17;100.00
71638;BME280;59485;43.542;-5.676;2023-07-13T12:29:27;101975.78;;;22.16;100.00
71638;BME280;59485;43.542;-5.676;2023-07-13T12:31:53;101976.53;;;22.23;100.00
71638;BME280;59485;43.542;-5.676;2023-07-13T12:34:20;101960.09;;;22.15;100.00
71638;BME280;59485;43.542;-5.676;2023-07-13T12:37:00;101971.41;;;22.20;100.00
71638;BME280;59485;43.542;-5.676;2023-07-13T12:39:38;101961.59;;;22.18;100.00
71638;BME280;59485;43.542;-5.676;2023-07-13T12:42:24;101956.59;;;22.20;100.00
71638;BME280;59485;43.542;-5.676;2023-07-13T12:45:24;101962.09;;;22.26;100.00
71638;BME280;59485;43.542;-5.676;2023-07-13T12:47:54;101933.88;;;22.16;100.00
71638;BME280;59485;43.542;-5.676;2023-07-13T12:50:34;101936.22;;;22.31;100.00
71638;BME280;59485;43.542;-5.676;2023-07-13T12:53:04;101919.31;;;22.37;100.00
71638;BME280;59485;43.542;-5.676;2023-07-13T12:55:43;101935.50;;;22.47;100.00
71638;BME280;59485;43.542;-5.676;2023-07-13T12:58:19;101936.75;;;22.51;100.00
71638;BME280;59485;43.542;-5.676;2023-07-13T13:00:50;101913.03;;;22.42;100.00
71638;BME280;59485;43.542;-5.676;2023-07-13T13:03:34;101912.91;;;22.49;100.00
71638;BME280;59485;43.542;-5.676;2023-07-13T13:08:40;101919.59;;;22.59;100.00
71638;BME280;59485;43.542;-5.676;2023-07-13T13:11:08;101902.72;;;22.54;100.00
71638;BME280;59485;43.542;-5.676;2023-07-13T13:13:34;101915.25;;;22.63;100.00
71638;BME280;59485;43.542;-5.676;2023-07-13T13:18:34;101910.03;;;22.78;100.00
71638;BME280;59485;43.542;-5.676;2023-07-13T13:21:01;101899.34;;;22.75;100.00
71638;BME280;59485;43.542;-5.676;2023-07-13T13:23:30;101891.81;;;22.76;100.00
71638;BME280;59485;43.542;-5.676;2023-07-13T13:25:57;101898.47;;;22.87;100.00
71638;BME280;59485;43.542;-5.676;2023-07-13T13:28:23;101893.38;;;22.95;100.00
71638;BME280;59485;43.542;-5.676;2023-07-13T13:31:01;101898.81;;;23.02;100.00
71638;BME280;59485;43.542;-5.676;2023-07-13T13:33:27;101861.38;;;23.03;100.00
71638;BME280;59485;43.542;-5.676;2023-07-13T13:35:53;101876.88;;;23.22;100.00
71638;BME280;59485;43.542;-5.676;2023-07-13T13:38:26;101860.59;;;23.19;100.00
71638;BME280;59485;43.542;-5.676;2023-07-13T13:41:11;101862.28;;;23.20;100.00
71638;BME280;59485;43.542;-5.676;2023-07-13T13:43:39;101881.50;;;23.28;100.00
71638;BME280;59485;43.542;-5.676;2023-07-13T13:46:24;101885.34;;;23.39;100.00
71638;BME280;59485;43.542;-5.676;2023-07-13T13:48:51;101862.22;;;23.43;100.00
71638;BME280;59485;43.542;-5.676;2023-07-13T13:51:19;101862.97;;;23.50;100.00
71638;BME280;59485;43.542;-5.676;2023-07-13T13:53:46;101882.16;;;23.59;100.00
71638;BME280;59485;43.542;-5.676;2023-07-13T13:56:12;101870.06;;;23.70;100.00